Time;durP1;ratioP1;P1;durP2;ratioP2;P2;SDS_P1;SDS_P2;PMS_P1;PMS_P2;Temp;Humidity;BMP_temperature;BMP_pressure;BME280_temperature;BME280_humidity;BME280_pressure;Samples;Min_cycle;Max_cycle;Signal;HPM_P1;HPM_P2
2021/09/18 00:01:01;;;;;;;104.57;71.37;;;13.60;99.90;;;;;;5014703;28;20187;-64
2021/09/18 00:03:29;;;;;;;101.33;71.73;;;13.60;99.90;;;;;;5018671;28;20211;-64
2021/09/18 00:05:55;;;;;;;89.80;65.10;;;13.60;99.90;;;;;;5034764;28;20178;-64
2021/09/18 00:08:20;;;;;;;91.90;62.87;;;13.60;99.90;;;;;;5031737;28;20171;-64
2021/09/18 00:10:46;;;;;;;107.93;69.30;;;13.50;99.90;;;;;;5014508;28;20263;-64
2021/09/18 00:13:12;;;;;;;104.00;68.97;;;13.50;99.90;;;;;;5015211;28;20681;-64
2021/09/18 00:15:38;;;;;;;113.73;73.63;;;13.50;99.90;;;;;;5034710;28;20180;-64
2021/09/18 00:18:04;;;;;;;104.97;74.40;;;13.50;99.90;;;;;;5034592;28;20190;-64
2021/09/18 00:20:30;;;;;;;116.00;74.03;;;13.50;99.90;;;;;;5014682;28;20188;-64
2021/09/18 00:22:56;;;;;;;117.53;77.20;;;13.50;99.90;;;;;;5014678;28;20595;-64
2021/09/18 00:25:22;;;;;;;103.83;70.13;;;13.50;99.90;;;;;;5031751;28;20226;-64
2021/09/18 00:27:47;;;;;;;138.27;86.57;;;13.40;99.90;;;;;;5034498;28;20566;-64
2021/09/18 00:30:13;;;;;;;148.73;86.37;;;13.40;99.90;;;;;;5017936;28;20185;-64
2021/09/18 00:32:39;;;;;;;127.77;82.53;;;13.40;99.90;;;;;;5027687;28;20250;-63
2021/09/18 00:35:05;;;;;;;126.77;97.77;;;13.40;99.90;;;;;;5034784;28;20310;-64
2021/09/18 00:37:31;;;;;;;136.47;109.03;;;13.40;99.90;;;;;;5022847;28;20858;-64
2021/09/18 00:39:57;;;;;;;145.47;125.30;;;13.40;99.90;;;;;;5014224;28;20245;-64
2021/09/18 00:42:22;;;;;;;148.03;130.27;;;13.40;99.90;;;;;;5023636;28;20234;-64
2021/09/18 00:44:50;;;;;;;119.37;97.30;;;13.40;99.90;;;;;;5034287;28;20199;-64
2021/09/18 00:47:16;;;;;;;117.53;74.63;;;13.40;99.90;;;;;;5025404;28;20184;-64
2021/09/18 00:49:42;;;;;;;128.67;88.93;;;13.40;99.90;;;;;;5014215;28;20192;-63
2021/09/18 00:52:07;;;;;;;119.60;73.37;;;13.30;99.90;;;;;;5033110;28;20187;-64
2021/09/18 00:54:33;;;;;;;111.03;69.90;;;13.30;99.90;;;;;;5033665;28;20175;-64
2021/09/18 00:56:59;;;;;;;115.90;78.10;;;13.30;99.90;;;;;;5016281;28;20263;-66
2021/09/18 00:59:24;;;;;;;130.33;77.10;;;13.20;99.90;;;;;;5015885;28;20660;-63
2021/09/18 01:01:50;;;;;;;114.23;77.80;;;13.20;99.90;;;;;;5033606;28;20168;-64
2021/09/18 01:04:16;;;;;;;123.23;75.77;;;13.20;99.90;;;;;;5032567;28;20205;-65
2021/09/18 01:06:42;;;;;;;117.77;72.53;;;13.20;99.90;;;;;;5013880;28;20191;-64
2021/09/18 01:09:08;;;;;;;123.20;70.27;;;13.20;99.90;;;;;;5013811;28;20600;-65
2021/09/18 01:11:34;;;;;;;128.27;77.80;;;13.20;99.90;;;;;;5032285;28;20235;-65
2021/09/18 01:13:59;;;;;;;146.67;80.77;;;13.20;99.90;;;;;;5033363;28;20243;-65
2021/09/18 01:16:25;;;;;;;121.87;71.73;;;13.20;99.90;;;;;;5015668;28;20226;-64
2021/09/18 01:18:51;;;;;;;139.17;80.17;;;13.20;99.90;;;;;;5013704;28;20184;-64
2021/09/18 01:21:18;;;;;;;142.40;83.37;;;13.20;99.90;;;;;;5028601;28;20245;-64
2021/09/18 01:23:44;;;;;;;139.90;81.23;;;13.10;99.90;;;;;;5019493;28;20216;-64
2021/09/18 01:26:10;;;;;;;153.60;88.67;;;13.10;99.90;;;;;;5013432;28;20181;-64
2021/09/18 01:28:39;;;;;;;146.37;83.07;;;13.10;99.90;;;;;;5024810;28;20259;-64
2021/09/18 01:31:05;;;;;;;147.23;80.70;;;13.10;99.90;;;;;;5032998;28;20175;-64
2021/09/18 01:33:31;;;;;;;170.20;92.50;;;13.10;99.90;;;;;;5022447;28;20207;-64
2021/09/18 01:35:57;;;;;;;167.50;91.43;;;13.10;99.90;;;;;;5018543;28;20190;-64
2021/09/18 01:38:22;;;;;;;164.80;90.50;;;13.00;99.90;;;;;;5031364;28;20201;-64
2021/09/18 01:40:48;;;;;;;168.10;94.67;;;13.00;99.90;;;;;;5032513;28;20191;-64
2021/09/18 01:43:14;;;;;;;169.47;90.20;;;13.00;99.90;;;;;;5031769;28;20211;-64
2021/09/18 01:45:41;;;;;;;151.73;86.57;;;13.00;99.90;;;;;;5013260;28;20666;-65
2021/09/18 01:48:11;;;;;;;163.27;86.23;;;13.00;99.90;;;;;;5021695;28;20183;-64
2021/09/18 01:50:51;;;;;;;161.97;85.50;;;13.00;99.90;;;;;;5032348;28;20175;-64
2021/09/18 01:53:19;;;;;;;146.67;80.43;;;13.00;99.90;;;;;;5022841;28;20291;-64
2021/09/18 01:55:46;;;;;;;163.40;84.47;;;13.00;99.90;;;;;;5016951;28;20194;-64
2021/09/18 01:58:12;;;;;;;174.17;87.20;;;12.90;99.90;;;;;;5032592;28;20180;-64
2021/09/18 02:00:50;;;;;;;175.80;89.03;;;12.90;99.90;;;;;;5029340;28;20184;-64
2021/09/18 02:03:16;;;;;;;165.47;93.20;;;12.90;99.90;;;;;;5012530;28;20704;-64
2021/09/18 02:05:42;;;;;;;154.43;83.20;;;12.80;99.90;;;;;;5015197;28;20180;-64
2021/09/18 02:08:07;;;;;;;174.70;88.20;;;12.90;99.90;;;;;;5032477;28;20210;-64
2021/09/18 02:10:34;;;;;;;162.47;83.13;;;12.90;99.90;;;;;;5030761;28;20187;-64
2021/09/18 02:13:01;;;;;;;150.70;83.37;;;12.90;99.90;;;;;;5027136;28;20247;-64
2021/09/18 02:15:27;;;;;;;166.87;83.77;;;12.80;99.90;;;;;;5032117;28;20178;-64
2021/09/18 02:17:53;;;;;;;162.77;89.40;;;12.80;99.90;;;;;;5012878;28;20608;-64
2021/09/18 02:20:21;;;;;;;160.73;87.97;;;12.80;99.90;;;;;;5012154;28;20211;-64
2021/09/18 02:22:47;;;;;;;150.23;78.23;;;12.80;99.90;;;;;;5030128;28;20257;-64
2021/09/18 02:25:14;;;;;;;160.37;81.60;;;12.70;99.90;;;;;;5016516;28;20172;-63
2021/09/18 02:27:40;;;;;;;155.97;80.77;;;12.70;99.90;;;;;;5012453;28;20181;-64
2021/09/18 02:30:08;;;;;;;149.20;80.10;;;12.60;99.90;;;;;;5025785;28;20552;-64
2021/09/18 02:32:36;;;;;;;164.70;79.43;;;12.60;99.90;;;;;;5031701;28;20288;-64
2021/09/18 02:35:10;;;;;;;155.60;74.70;;;12.60;99.90;;;;;;5018924;28;20192;-64
2021/09/18 02:37:36;;;;;;;156.27;75.17;;;12.50;99.90;;;;;;5012231;28;20176;-64
2021/09/18 02:40:04;;;;;;;133.93;74.37;;;12.50;99.90;;;;;;5024068;28;20222;-64
2021/09/18 02:42:30;;;;;;;154.57;76.90;;;12.50;99.90;;;;;;5031766;28;20225;-68
2021/09/18 02:44:56;;;;;;;156.87;74.60;;;12.50;99.90;;;;;;5021852;28;20184;-69
2021/09/18 02:47:21;;;;;;;149.57;71.07;;;12.40;99.90;;;;;;5013065;28;20183;-66
2021/09/18 02:49:47;;;;;;;174.00;80.93;;;12.30;99.90;;;;;;5016539;28;20184;-70
2021/09/18 02:52:12;;;;;;;148.60;72.50;;;12.40;99.90;;;;;;5019483;28;20264;-67
2021/09/18 02:54:38;;;;;;;159.93;72.50;;;12.40;99.90;;;;;;5031482;28;20175;-69
2021/09/18 02:57:04;;;;;;;166.60;76.63;;;12.40;99.90;;;;;;5025636;28;20195;-68
2021/09/18 02:59:29;;;;;;;153.80;73.57;;;12.40;99.90;;;;;;5012994;28;20180;-67
2021/09/18 03:01:55;;;;;;;168.07;77.77;;;12.40;99.90;;;;;;5015912;28;20262;-68
2021/09/18 03:04:20;;;;;;;173.87;79.03;;;12.30;99.90;;;;;;5032472;28;20275;-69
2021/09/18 03:06:46;;;;;;;178.30;81.43;;;12.30;99.90;;;;;;5031255;28;20595;-69
2021/09/18 03:09:15;;;;;;;182.70;80.17;;;12.30;99.90;;;;;;5013009;28;20184;-66
2021/09/18 03:11:40;;;;;;;151.13;71.87;;;12.40;99.90;;;;;;5012756;28;20578;-70
2021/09/18 03:14:06;;;;;;;156.77;76.53;;;12.40;99.90;;;;;;5032335;28;20349;-68
2021/09/18 03:16:31;;;;;;;151.20;74.43;;;12.30;99.90;;;;;;5031173;28;20187;-69
2021/09/18 03:18:57;;;;;;;149.03;70.47;;;12.20;99.90;;;;;;5029635;28;20186;-68
2021/09/18 03:21:23;;;;;;;160.30;74.23;;;12.20;99.90;;;;;;5031108;28;20673;-68
2021/09/18 03:23:48;;;;;;;169.97;81.80;;;12.20;99.90;;;;;;5015866;28;20212;-69
2021/09/18 03:26:14;;;;;;;144.20;73.03;;;12.20;99.90;;;;;;5013067;28;20176;-68
2021/09/18 03:28:39;;;;;;;136.37;73.03;;;12.20;99.90;;;;;;5025963;28;20207;-70
2021/09/18 03:31:05;;;;;;;149.30;75.03;;;12.20;99.90;;;;;;5031050;28;20700;-68
2021/09/18 03:33:31;;;;;;;148.93;75.77;;;12.20;99.90;;;;;;5022730;28;20550;-70
2021/09/18 03:35:57;;;;;;;148.53;75.97;;;12.20;99.90;;;;;;5032706;28;20190;-69
2021/09/18 03:38:22;;;;;;;150.70;76.70;;;12.20;99.90;;;;;;5029475;28;20226;-66
2021/09/18 03:40:48;;;;;;;148.73;76.80;;;12.20;99.90;;;;;;5030596;28;20234;-68
2021/09/18 03:43:14;;;;;;;135.83;72.80;;;12.20;99.90;;;;;;5022342;28;20204;-68
2021/09/18 03:45:39;;;;;;;139.53;81.80;;;12.20;99.90;;;;;;5015691;28;20179;-67
2021/09/18 03:48:05;;;;;;;144.70;73.17;;;12.10;99.90;;;;;;5031958;28;20168;-65
2021/09/18 03:50:31;;;;;;;139.63;68.30;;;12.10;99.90;;;;;;5028556;28;20560;-64
2021/09/18 03:52:56;;;;;;;133.40;67.77;;;12.00;99.90;;;;;;5011491;28;20207;-65
2021/09/18 03:55:22;;;;;;;149.73;72.23;;;12.00;99.90;;;;;;5011402;28;20177;-66
2021/09/18 03:57:48;;;;;;;146.80;69.93;;;12.00;99.90;;;;;;5031140;28;20719;-64
2021/09/18 04:00:14;;;;;;;156.73;74.67;;;12.00;99.90;;;;;;5029716;28;20207;-64
2021/09/18 04:02:39;;;;;;;151.30;80.60;;;12.00;99.90;;;;;;5011331;28;20208;-65
2021/09/18 04:05:06;;;;;;;159.97;81.23;;;11.90;99.90;;;;;;5011442;28;20172;-64
2021/09/18 04:07:32;;;;;;;165.33;83.30;;;11.90;99.90;;;;;;5029288;28;20819;-64
2021/09/18 04:09:57;;;;;;;169.57;82.50;;;11.90;99.90;;;;;;5034520;28;20257;-65
2021/09/18 04:12:23;;;;;;;181.53;84.33;;;12.00;99.90;;;;;;5019296;28;20212;-65
2021/09/18 04:14:49;;;;;;;173.13;75.67;;;12.00;99.90;;;;;;5014829;28;20630;-65
2021/09/18 04:17:15;;;;;;;162.77;72.40;;;12.00;99.90;;;;;;5027686;28;20194;-65
2021/09/18 04:19:40;;;;;;;141.83;67.80;;;12.00;99.90;;;;;;5034207;28;20175;-65
2021/09/18 04:22:07;;;;;;;153.30;72.90;;;12.00;99.90;;;;;;5022625;28;20230;-64
2021/09/18 04:24:34;;;;;;;143.90;73.03;;;12.00;99.90;;;;;;5014053;28;20581;-64
2021/09/18 04:26:59;;;;;;;140.67;69.23;;;11.90;99.90;;;;;;5023754;28;20179;-65
2021/09/18 04:29:25;;;;;;;155.80;72.63;;;11.80;99.90;;;;;;5033876;28;20652;-64
2021/09/18 04:31:51;;;;;;;146.03;70.10;;;11.80;99.90;;;;;;5014834;28;20212;-64
2021/09/18 04:34:17;;;;;;;142.13;70.73;;;11.80;99.90;;;;;;5014313;28;20613;-65
2021/09/18 04:36:42;;;;;;;142.10;72.27;;;11.90;99.90;;;;;;5031381;28;20195;-65
2021/09/18 04:39:08;;;;;;;142.90;72.43;;;11.90;99.90;;;;;;5034256;28;20171;-65
2021/09/18 04:41:33;;;;;;;134.97;67.43;;;11.90;99.90;;;;;;5018120;28;20633;-64
2021/09/18 04:43:59;;;;;;;137.33;68.77;;;11.90;99.90;;;;;;5014187;28;20211;-65
2021/09/18 04:46:25;;;;;;;146.77;70.23;;;11.90;99.90;;;;;;5028036;28;20265;-64
2021/09/18 04:48:52;;;;;;;129.37;65.53;;;11.80;99.90;;;;;;5025454;28;20176;-65
2021/09/18 04:51:18;;;;;;;135.73;68.80;;;11.80;99.90;;;;;;5013828;28;20538;-64
2021/09/18 04:53:44;;;;;;;136.43;67.80;;;11.80;99.90;;;;;;5020472;28;20202;-65
2021/09/18 04:56:10;;;;;;;143.60;73.43;;;11.90;99.90;;;;;;5033845;28;20207;-65
2021/09/18 04:58:36;;;;;;;144.53;71.30;;;11.80;99.90;;;;;;5028558;28;20592;-64
2021/09/18 05:01:02;;;;;;;136.43;68.77;;;11.80;99.90;;;;;;5013742;28;20211;-65
2021/09/18 05:03:27;;;;;;;132.47;67.00;;;11.80;99.90;;;;;;5016813;28;20261;-65
2021/09/18 05:05:53;;;;;;;145.70;67.97;;;11.80;99.90;;;;;;5033720;28;20172;-65
2021/09/18 05:08:19;;;;;;;141.70;70.23;;;11.80;99.90;;;;;;5024824;28;20184;-64
2021/09/18 05:10:44;;;;;;;133.83;66.93;;;11.90;99.90;;;;;;5012135;28;20211;-65
2021/09/18 05:15:38;;;;;;;126.27;65.27;;;11.80;99.90;;;;;;5011975;28;20215;-66
2021/09/18 05:18:03;;;;;;;112.17;59.67;;;11.80;99.90;;;;;;5012872;28;20204;-67
2021/09/18 05:20:29;;;;;;;141.27;66.47;;;11.80;99.90;;;;;;5012615;28;20176;-66
2021/09/18 05:22:55;;;;;;;144.57;63.83;;;11.80;99.90;;;;;;5012839;28;20215;-66
2021/09/18 05:25:21;;;;;;;133.00;66.13;;;11.80;99.90;;;;;;5013144;28;20172;-67
2021/09/18 05:27:46;;;;;;;131.37;65.00;;;11.80;99.90;;;;;;5013096;28;20183;-66
2021/09/18 05:30:12;;;;;;;130.20;64.27;;;11.80;99.90;;;;;;5012968;28;20251;-66
2021/09/18 05:32:38;;;;;;;130.13;64.93;;;11.90;99.90;;;;;;5012730;28;20183;-66
2021/09/18 05:35:05;;;;;;;122.07;65.40;;;11.90;99.90;;;;;;5012581;28;20217;-67
2021/09/18 05:37:31;;;;;;;140.13;66.20;;;12.00;99.90;;;;;;5012307;28;20269;-66
2021/09/18 05:39:56;;;;;;;119.53;63.80;;;12.10;99.90;;;;;;5012995;28;20203;-67
2021/09/18 05:42:22;;;;;;;112.07;61.47;;;12.10;99.90;;;;;;5010461;28;20712;-67
2021/09/18 05:44:47;;;;;;;109.07;60.07;;;12.20;99.90;;;;;;5012242;28;20199;-66
2021/09/18 05:47:13;;;;;;;118.87;60.43;;;12.30;99.90;;;;;;5011336;28;20180;-66
2021/09/18 05:49:38;;;;;;;124.37;63.83;;;12.30;99.90;;;;;;5012636;28;20634;-67
2021/09/18 05:52:04;;;;;;;127.93;67.13;;;12.40;99.90;;;;;;5012620;28;20541;-67
2021/09/18 05:54:30;;;;;;;111.50;62.80;;;12.40;99.90;;;;;;5012821;28;20685;-67
2021/09/18 05:56:56;;;;;;;122.37;62.57;;;12.50;99.90;;;;;;5012316;28;20184;-66
2021/09/18 05:59:22;;;;;;;118.93;69.33;;;12.50;99.90;;;;;;5012312;28;20203;-67
2021/09/18 06:01:48;;;;;;;122.40;70.47;;;12.60;99.90;;;;;;5012383;28;20184;-66
2021/09/18 06:04:13;;;;;;;114.30;59.47;;;12.70;99.90;;;;;;5012340;28;20259;-66
2021/09/18 06:06:39;;;;;;;129.97;61.83;;;12.80;99.90;;;;;;5012595;28;20172;-67
2021/09/18 06:09:05;;;;;;;105.40;60.03;;;12.90;99.90;;;;;;5012604;28;20176;-67
2021/09/18 06:11:30;;;;;;;121.67;63.63;;;13.00;99.90;;;;;;5012100;28;20188;-66
2021/09/18 06:13:56;;;;;;;116.23;61.73;;;13.20;99.90;;;;;;5012227;28;20208;-66
2021/09/18 06:16:22;;;;;;;101.30;59.83;;;13.30;99.90;;;;;;5012252;28;20579;-66
2021/09/18 06:18:49;;;;;;;98.83;58.40;;;13.40;99.90;;;;;;5012210;28;20175;-64
2021/09/18 06:21:14;;;;;;;87.03;52.63;;;13.40;99.90;;;;;;5011934;28;20191;-66
2021/09/18 06:23:40;;;;;;;86.80;51.97;;;13.40;99.90;;;;;;5012184;28;20265;-66
2021/09/18 06:26:07;;;;;;;85.80;57.00;;;13.30;99.90;;;;;;5012082;28;20175;-66
2021/09/18 06:28:33;;;;;;;74.77;48.63;;;13.30;99.90;;;;;;5012307;28;20211;-67
2021/09/18 06:31:00;;;;;;;76.77;47.90;;;13.20;99.90;;;;;;5011531;28;20172;-67
2021/09/18 06:33:25;;;;;;;67.30;46.87;;;13.20;99.90;;;;;;5011843;28;20234;-67
2021/09/18 06:35:51;;;;;;;72.37;48.00;;;13.30;99.90;;;;;;5012345;28;20259;-66
2021/09/18 06:38:21;;;;;;;74.17;49.33;;;13.30;99.90;;;;;;5011916;28;20180;-67
2021/09/18 06:40:49;;;;;;;69.90;48.60;;;13.40;99.90;;;;;;5010735;28;20526;-66
2021/09/18 06:43:15;;;;;;;64.43;47.60;;;13.60;99.90;;;;;;5011801;28;20239;-67
2021/09/18 06:45:40;;;;;;;56.97;47.80;;;13.80;99.90;;;;;;5012112;28;20223;-66
2021/09/18 06:48:06;;;;;;;49.43;41.57;;;14.10;99.90;;;;;;5011786;28;20179;-68
2021/09/18 06:50:32;;;;;;;44.40;39.70;;;14.30;99.90;;;;;;5011513;28;20234;-67
2021/09/18 06:52:58;;;;;;;41.97;37.53;;;14.50;99.90;;;;;;5011644;28;20203;-66
2021/09/18 06:55:24;;;;;;;35.43;31.23;;;15.00;99.90;;;;;;5011923;28;20242;-67
2021/09/18 06:57:50;;;;;;;28.63;25.97;;;15.40;99.90;;;;;;5010569;28;20174;-66
2021/09/18 07:00:16;;;;;;;26.53;24.03;;;15.60;99.90;;;;;;5011316;28;20180;-66
2021/09/18 07:02:42;;;;;;;24.00;21.67;;;15.90;99.90;;;;;;5011573;28;20204;-66
2021/09/18 07:05:08;;;;;;;21.40;19.30;;;16.20;99.90;;;;;;5011786;28;20242;-68
2021/09/18 07:07:36;;;;;;;20.23;18.37;;;16.50;99.90;;;;;;5012067;28;20176;-68
2021/09/18 07:10:02;;;;;;;20.27;18.23;;;16.70;99.90;;;;;;5011529;28;20214;-66
2021/09/18 07:12:27;;;;;;;21.30;17.77;;;17.00;99.90;;;;;;5011063;28;20665;-68
2021/09/18 07:14:53;;;;;;;20.00;17.97;;;17.00;99.90;;;;;;5011252;28;20253;-69
2021/09/18 07:17:19;;;;;;;20.00;18.03;;;17.00;99.90;;;;;;5011688;28;20176;-67
2021/09/18 07:19:44;;;;;;;20.77;18.67;;;17.00;99.90;;;;;;4998504;28;20254;-67
2021/09/18 07:22:10;;;;;;;20.50;18.53;;;17.20;99.90;;;;;;4991992;28;20179;-66
2021/09/18 07:24:35;;;;;;;19.13;17.33;;;17.20;99.90;;;;;;5007518;28;20214;-67
2021/09/18 07:27:01;;;;;;;20.47;18.50;;;17.20;99.90;;;;;;5011729;28;20256;-68
2021/09/18 07:29:27;;;;;;;19.17;17.30;;;17.30;99.90;;;;;;5011153;28;20177;-67
2021/09/18 07:31:54;;;;;;;19.63;16.33;;;17.40;99.90;;;;;;5011614;28;20179;-67
2021/09/18 07:34:20;;;;;;;19.00;17.30;;;17.50;99.90;;;;;;5011414;28;20669;-67
2021/09/18 07:36:46;;;;;;;20.60;18.70;;;17.70;99.90;;;;;;5011694;28;20177;-65
2021/09/18 07:39:12;;;;;;;18.67;16.87;;;17.90;99.90;;;;;;5011357;28;20196;-65
2021/09/18 07:41:38;;;;;;;17.90;16.40;;;18.00;99.90;;;;;;5011194;28;20634;-67
2021/09/18 07:44:04;;;;;;;18.03;16.43;;;18.10;99.90;;;;;;5014992;28;20266;-67
2021/09/18 07:46:30;;;;;;;19.67;17.77;;;18.20;99.90;;;;;;5015262;28;20214;-67
2021/09/18 07:48:57;;;;;;;19.70;17.63;;;18.20;99.90;;;;;;5015041;28;20179;-68
2021/09/18 07:51:24;;;;;;;20.43;17.20;;;18.60;99.90;;;;;;5014888;28;20164;-66
2021/09/18 07:53:49;;;;;;;18.27;16.47;;;19.10;99.90;;;;;;5014966;28;20207;-67
2021/09/18 07:56:16;;;;;;;19.77;17.77;;;19.50;99.90;;;;;;5015235;28;20172;-67
2021/09/18 07:58:42;;;;;;;19.40;17.43;;;19.70;99.90;;;;;;5014978;28;20530;-68
2021/09/18 08:01:07;;;;;;;18.10;16.43;;;19.70;99.90;;;;;;5014704;28;20168;-67
2021/09/18 08:03:33;;;;;;;16.77;15.37;;;20.10;99.90;;;;;;5012863;28;20208;-66
2021/09/18 08:05:58;;;;;;;18.43;16.53;;;20.50;99.90;;;;;;5015035;28;20251;-67
2021/09/18 08:08:24;;;;;;;17.63;15.67;;;21.00;99.90;;;;;;5015042;28;20172;-67
2021/09/18 08:10:49;;;;;;;17.85;16.25;;;21.40;99.90;;;;;;4996915;28;20176;-67
2021/09/18 08:13:15;;;;;;;18.83;16.95;;;21.80;99.90;;;;;;4994902;28;20630;-65
2021/09/18 08:15:41;;;;;;;19.67;17.42;;;22.40;99.90;;;;;;4995214;28;20177;-67
2021/09/18 08:18:06;;;;;;;19.98;17.58;;;22.60;99.90;;;;;;4996475;28;20264;-68
2021/09/18 08:20:32;;;;;;;20.33;18.27;;;23.00;99.90;;;;;;5014361;28;20204;-67
2021/09/18 08:22:58;;;;;;;20.80;18.40;;;22.90;99.90;;;;;;5014249;28;20212;-67
2021/09/18 08:25:23;;;;;;;21.52;19.42;;;22.80;99.90;;;;;;5014552;28;20169;-66
2021/09/18 08:27:49;;;;;;;22.20;19.90;;;22.70;99.90;;;;;;5014465;28;20177;-67
2021/09/18 08:30:15;;;;;;;22.92;19.38;;;22.70;99.90;;;;;;5014065;28;20633;-67
2021/09/18 08:32:41;;;;;;;21.63;19.67;;;22.90;99.90;;;;;;5014172;28;20176;-67
2021/09/18 08:35:07;;;;;;;23.60;21.33;;;23.40;99.90;;;;;;5014416;28;20180;-66
2021/09/18 08:37:33;;;;;;;21.50;19.33;;;23.60;99.90;;;;;;5014262;28;20589;-67
2021/09/18 08:39:58;;;;;;;21.58;19.27;;;23.80;99.90;;;;;;5014134;28;20240;-67
2021/09/18 08:42:24;;;;;;;23.10;20.05;;;24.00;99.90;;;;;;5013923;28;20183;-66
2021/09/18 08:44:50;;;;;;;21.52;19.33;;;24.20;99.90;;;;;;5014066;28;20256;-68
2021/09/18 08:47:17;;;;;;;23.92;21.58;;;24.50;99.90;;;;;;5013837;28;20188;-65
2021/09/18 08:49:43;;;;;;;24.10;21.60;;;24.30;99.90;;;;;;5013660;28;20180;-66
2021/09/18 08:52:09;;;;;;;24.50;21.92;;;24.10;99.90;;;;;;5013998;28;20221;-66
2021/09/18 08:54:39;;;;;;;24.48;22.15;;;24.00;99.90;;;;;;5012751;28;20649;-66
2021/09/18 08:57:05;;;;;;;26.70;23.55;;;23.70;99.90;;;;;;5013801;28;20180;-66
2021/09/18 08:59:30;;;;;;;27.20;23.23;;;23.60;99.90;;;;;;5013742;28;20302;-67
2021/09/18 09:02:10;;;;;;;25.20;22.52;;;23.70;99.90;;;;;;5013548;28;20180;-67
2021/09/18 09:04:36;;;;;;;24.75;21.52;;;24.10;99.90;;;;;;5013628;28;20215;-65
2021/09/18 09:07:02;;;;;;;21.38;19.10;;;24.30;99.90;;;;;;5013433;28;20176;-65
2021/09/18 09:10:06;;;;;;;24.23;21.92;;;24.50;99.90;;;;;;5013557;28;20241;-65
2021/09/18 09:12:38;;;;;;;28.73;25.70;;;24.60;99.90;;;;;;5013452;28;20542;-66
2021/09/18 09:15:06;;;;;;;27.42;24.45;;;24.70;99.90;;;;;;5013061;28;20572;-66
2021/09/18 09:17:34;;;;;;;29.67;24.45;;;24.70;99.90;;;;;;5013397;28;20176;-65
2021/09/18 09:20:00;;;;;;;27.00;23.40;;;24.80;99.90;;;;;;5013104;28;20241;-66
2021/09/18 09:22:55;;;;;;;27.92;24.42;;;25.10;99.90;;;;;;5013408;28;20180;-66
2021/09/18 09:25:35;;;;;;;27.58;24.80;;;24.80;99.90;;;;;;5004530;28;20196;-65
2021/09/18 09:28:31;;;;;;;28.00;24.83;;;25.40;99.90;;;;;;5013322;28;20171;-66
2021/09/18 09:31:24;;;;;;;25.77;23.13;;;26.00;99.90;;;;;;4993431;28;20182;-66
2021/09/18 09:33:55;;;;;;;27.40;24.50;;;26.50;99.90;;;;;;4999967;28;20211;-66
2021/09/18 09:36:21;;;;;;;30.38;26.13;;;27.10;99.90;;;;;;5013226;28;20180;-65
2021/09/18 09:38:55;;;;;;;29.25;26.30;;;27.50;99.90;;;;;;5012864;28;20183;-66
2021/09/18 09:41:36;;;;;;;29.45;26.33;;;27.60;99.90;;;;;;5012832;28;20168;-65
2021/09/18 09:44:04;;;;;;;28.65;25.58;;;27.60;99.90;;;;;;5012537;28;20220;-66
2021/09/18 09:46:31;;;;;;;30.77;27.35;;;27.90;99.90;;;;;;5012819;28;20176;-66
2021/09/18 09:49:09;;;;;;;28.42;25.80;;;28.20;99.90;;;;;;5012835;28;20637;-66
2021/09/18 09:51:35;;;;;;;31.77;28.50;;;28.20;99.90;;;;;;5012207;28;20179;-65
2021/09/18 09:54:15;;;;;;;36.13;32.15;;;28.20;99.90;;;;;;5012907;28;20192;-66
2021/09/18 09:56:41;;;;;;;35.03;31.48;;;28.10;99.90;;;;;;5012586;28;20176;-66
2021/09/18 09:59:07;;;;;;;37.10;30.92;;;28.20;99.90;;;;;;5012732;28;20176;-65
2021/09/18 10:01:32;;;;;;;37.38;33.60;;;28.60;99.90;;;;;;5012088;28;20218;-66
2021/09/18 10:03:58;;;;;;;36.35;32.75;;;28.80;99.90;;;;;;5012531;28;20235;-65
2021/09/18 10:06:24;;;;;;;37.75;33.40;;;28.70;99.90;;;;;;5011960;28;20222;-65
2021/09/18 10:08:51;;;;;;;37.58;33.63;;;28.80;99.90;;;;;;5012580;28;20165;-66
2021/09/18 10:11:30;;;;;;;38.25;34.28;;;28.70;99.90;;;;;;5012021;28;20180;-65
2021/09/18 10:13:58;;;;;;;39.10;35.17;;;28.90;99.90;;;;;;5012494;28;20266;-65
2021/09/18 10:16:26;;;;;;;41.88;37.50;;;28.60;99.90;;;;;;5012030;28;20550;-66
2021/09/18 10:18:56;;;;;;;38.80;34.70;;;28.60;99.90;;;;;;5010059;28;20684;-65
2021/09/18 10:24:07;;;;;;;35.85;32.30;;;29.20;99.90;;;;;;5011531;28;20261;-65
2021/09/18 10:26:34;;;;;;;35.53;31.65;;;29.10;99.90;;;;;;5012062;28;20569;-66
2021/09/18 10:29:02;;;;;;;34.65;31.15;;;29.60;99.90;;;;;;5012279;28;20164;-65
2021/09/18 10:31:28;;;;;;;37.60;33.63;;;29.90;99.90;;;;;;5011784;28;20544;-66
2021/09/18 10:33:55;;;;;;;37.75;34.05;;;29.40;99.90;;;;;;5012064;28;20226;-66
2021/09/18 10:36:29;;;;;;;37.17;33.42;;;29.10;99.90;;;;;;5011925;28;20187;-66
2021/09/18 10:39:19;;;;;;;32.72;28.00;;;29.10;99.90;;;;;;5012033;28;20175;-66
2021/09/18 10:41:53;;;;;;;32.10;28.80;;;29.40;99.90;;;;;;5006781;28;20203;-66
2021/09/18 10:44:23;;;;;;;30.85;27.83;;;28.90;99.90;;;;;;5011435;28;20208;-66
2021/09/18 10:46:53;;;;;;;32.38;28.98;;;29.00;99.90;;;;;;5011596;28;20168;-66
2021/09/18 10:49:40;;;;;;;30.00;26.80;;;29.10;99.90;;;;;;5011797;28;20656;-66
2021/09/18 10:52:20;;;;;;;26.27;23.58;;;29.00;99.90;;;;;;5012060;28;20202;-66
2021/09/18 10:55:10;;;;;;;28.70;25.95;;;28.50;99.90;;;;;;5011899;28;20212;-66
2021/09/18 10:57:36;;;;;;;29.30;26.50;;;28.40;99.90;;;;;;5011753;28;20171;-65
2021/09/18 11:00:24;;;;;;;25.40;23.05;;;28.30;99.90;;;;;;5010907;28;20304;-66
2021/09/18 11:02:54;;;;;;;26.20;23.35;;;28.40;99.90;;;;;;5005146;28;20596;-65
2021/09/18 11:05:22;;;;;;;29.08;25.90;;;28.50;99.90;;;;;;5011727;28;20172;-66
2021/09/18 11:08:22;;;;;;;28.42;25.35;;;28.60;99.90;;;;;;5011763;28;20180;-65
2021/09/18 11:10:52;;;;;;;27.35;24.70;;;28.70;99.90;;;;;;5010317;28;20175;-65
2021/09/18 11:13:23;;;;;;;21.30;19.30;;;29.00;99.90;;;;;;5010703;28;20744;-65
2021/09/18 11:15:50;;;;;;;20.83;18.75;;;28.70;99.90;;;;;;5091920;22;20302;-62
2021/09/18 11:18:26;;;;;;;22.77;20.50;;;28.60;99.90;;;;;;5084519;28;20236;-65
2021/09/18 11:20:51;;;;;;;24.45;22.23;;;28.30;99.90;;;;;;5083846;28;20169;-64
2021/09/18 11:23:36;;;;;;;25.35;22.95;;;28.40;99.90;;;;;;5095449;28;20227;-64
2021/09/18 11:26:40;;;;;;;22.67;20.45;;;28.10;99.90;;;;;;5085026;28;20209;-64
2021/09/18 11:29:09;;;;;;;25.25;22.80;;;28.40;99.90;;;;;;5075171;28;20256;-65
2021/09/18 11:31:35;;;;;;;21.25;19.42;;;28.80;99.90;;;;;;5088987;28;20536;-65
2021/09/18 11:34:02;;;;;;;19.52;17.75;;;28.80;99.90;;;;;;5095363;28;20716;-63
2021/09/18 11:36:28;;;;;;;21.08;19.08;;;28.60;99.90;;;;;;5082042;28;20193;-63
2021/09/18 11:38:54;;;;;;;24.48;22.08;;;28.80;99.90;;;;;;5074673;28;20232;-63
2021/09/18 11:41:20;;;;;;;26.13;23.73;;;28.70;99.90;;;;;;5085297;28;20264;-63
2021/09/18 11:43:47;;;;;;;24.15;21.85;;;28.90;99.90;;;;;;5094997;28;20233;-64
2021/09/18 11:46:23;;;;;;;29.10;26.23;;;29.30;99.90;;;;;;5085093;28;20585;-63
2021/09/18 11:49:00;;;;;;;27.65;24.95;;;29.30;99.90;;;;;;5074658;28;20696;-62
2021/09/18 11:51:25;;;;;;;25.63;23.13;;;29.60;99.90;;;;;;5075348;28;20174;-62
2021/09/18 11:54:02;;;;;;;21.60;19.30;;;29.90;99.90;;;;;;5074568;28;20703;-62
2021/09/18 11:56:28;;;;;;;24.02;21.67;;;30.40;99.90;;;;;;5084890;28;20181;-62
2021/09/18 11:58:54;;;;;;;24.05;21.58;;;30.80;99.90;;;;;;5094826;28;20169;-62
2021/09/18 12:01:20;;;;;;;24.42;22.15;;;30.70;99.90;;;;;;5085065;28;20547;-65
2021/09/18 12:03:46;;;;;;;24.20;21.70;;;30.50;99.90;;;;;;5074429;28;20245;-63
2021/09/18 12:06:16;;;;;;;22.25;20.25;;;30.30;99.90;;;;;;5081484;28;20223;-62
2021/09/18 12:08:43;;;;;;;23.75;21.50;;;30.40;99.90;;;;;;5094755;28;20166;-62
2021/09/18 12:11:08;;;;;;;23.33;21.05;;;30.30;99.90;;;;;;5087545;28;20181;-62
2021/09/18 12:13:43;;;;;;;23.98;21.52;;;29.60;99.90;;;;;;5073528;28;20178;-63
2021/09/18 12:16:11;;;;;;;24.67;22.27;;;28.90;99.90;;;;;;5079822;28;20902;-62
2021/09/18 12:18:38;;;;;;;24.27;21.85;;;28.70;99.90;;;;;;5094540;28;20173;-62
2021/09/18 12:21:15;;;;;;;22.65;20.73;;;28.20;99.90;;;;;;5088540;28;20265;-62
2021/09/18 12:23:47;;;;;;;21.27;19.27;;;27.90;99.90;;;;;;5074060;28;20201;-62
2021/09/18 12:26:14;;;;;;;19.63;17.70;;;27.30;99.90;;;;;;5079015;28;20795;-63
2021/09/18 12:28:40;;;;;;;19.08;17.17;;;26.50;99.90;;;;;;5094004;28;20646;-63
2021/09/18 12:31:19;;;;;;;17.65;15.85;;;26.10;99.90;;;;;;5090011;28;20173;-63